• Join FlightAware (Why Join?)
  • Login
  • US Flag 
03:02AM EDT


 

Airport Tracker/Info


-or-


 

Live Flight TrackerFlight Track Log ✈ OPT452 ✈ 20-Apr-2013 ✈ KSGJ - KCHS

Flight Track Log - Related Links

Times and Time Zones

All times are in EDT time to prevent confusion due to time zone crossing. See the OPT452 flight status page for this flight to view local times or setup timezone preferences in your user account.

Time Position Orientation Groundspeed Altitude Reporting Facility
EDT Latitude Longitude Course Direction KTS MPH feet Rate Location/Type
01:03PM 29.9650 -81.3486 North 153 176 900  Level Jacksonville Center
01:04PM 30.0067 -81.3456 North 190 219 3,200 2,520 Climbing Jacksonville Center
01:05PM 30.0633 -81.3686 341° North 229 264 5,700 2,520 Climbing Jacksonville Center
01:06PM 30.1283 -81.4011 337° Northwest 270 311 8,300 2,640 Climbing Jacksonville Center
01:07PM 30.1978 -81.4386 335° Northwest 275 316 11,000 2,640 Climbing Jacksonville Center
01:08PM 30.2711 -81.4758 336° Northwest 292 336 13,600 2,520 Climbing Jacksonville Center
01:09PM 30.3489 -81.5061 341° North 292 336 16,100 2,100 Climbing Jacksonville Center
01:10PM 30.4319 -81.4783 16° North 292 336 17,900 1,500 Climbing Jacksonville Center
01:11PM 30.5236 -81.4506 15° North 306 352 19,100 1,200 Climbing Jacksonville Center
01:12PM 30.6150 -81.4056 23° Northeast 328 377 20,400 900 Climbing Jacksonville Center
01:13PM 30.7081 -81.3486 28° Northeast 355 409 21,000 300 Climbing Jacksonville Center
01:14PM 30.8078 -81.2914 26° Northeast 374 430 21,000  Level Jacksonville Center
01:15PM 30.9092 -81.2339 26° Northeast 387 445 21,000  Level Jacksonville Center
01:16PM 31.0086 -81.1764 26° Northeast 392 451 21,000  Level Jacksonville Center
01:17PM 31.1103 -81.1189 26° Northeast 399 459 21,000  Level Jacksonville Center
01:18PM 31.2094 -81.0561 28° Northeast 404 465 21,000  Level Jacksonville Center
01:19PM 31.3089 -80.9983 26° Northeast 397 457 21,000  Level Jacksonville Center
01:20PM 31.4083 -80.9403 26° Northeast 402 463 21,000  Level Jacksonville Center
01:21PM 31.5075 -80.8797 27° Northeast 395 455 21,000  Level Jacksonville Center
01:22PM 31.5986 -80.8292 25° Northeast 395 455 21,000  Level Jacksonville Center
01:23PM 31.7061 -80.7656 27° Northeast 389 448 21,000 -60 Level Jacksonville Center
01:24PM 31.7928 -80.7147 26° Northeast 381 438 20,900 -900 Descending Jacksonville Center
01:25PM 31.9003 -80.6486 28° Northeast 388 447 19,300 -1,560 Descending Jacksonville Center
01:26PM 32.0014 -80.5872 27° Northeast 393 452 17,800 -1,440 Descending Jacksonville Center
01:27PM 32.0883 -80.5361 26° Northeast 393 452 16,500 -1,500 Descending Jacksonville Center
01:28PM 32.1853 -80.4772 27° Northeast 393 452 14,900 -3,780 Descending Jacksonville Center
01:29PM 32.2719 -80.4233 28° Northeast 372 428 9,000 -3,000 Descending Jacksonville Center
01:30PM 32.3525 -80.3769 26° Northeast 339 390 8,900 -480 Descending Jacksonville Center
01:31PM 32.4244 -80.3306 29° Northeast 307 353 8,100 -1,020 Descending Jacksonville Center
01:32PM 32.4967 -80.2867 27° Northeast 291 335 6,900 -1,380 Descending Jacksonville Center
01:33PM 32.5628 -80.2478 26° Northeast 276 318 5,400 -1,800 Descending Jacksonville Center
01:34PM 32.6267 -80.2064 29° Northeast 270 311 3,300 -1,260 Descending Jacksonville Center
01:35PM 32.6906 -80.1700 26° Northeast 247 284 2,900 -480 Descending Jacksonville Center
01:36PM 32.7461 -80.1336 29° Northeast 234 269 2,400 -660 Descending Jacksonville Center
01:37PM 32.7972 -80.0928 34° Northeast 223 257 1,600 -660 Descending Jacksonville Center
01:38PM 32.8406 -80.0714 23° Northeast 193 222 1,100 -660 Descending Jacksonville Center
01:39PM 32.8717 -80.0558 23° Northeast 150 173 300 -480 Descending Jacksonville Center
01:40PM 32.9067 -80.0347 27° Northeast 143 165 200 -120 Descending Jacksonville Center
01:42PM 32.8986 -80.0405 180° South  Level Estimated